Pennsdale, Pennsylvania
Current Conditions -  °F | °C
As of 5:54 AM on Sunday 23 Nov 2014 (Local Time) from KIPT Reporting Station
Overcast Overcast  
Wind Chill: 33°   Ceiling: 8500
Heat Index: 33°   Visibility: 7mi
Dew Point: 28°   Wind: 0mph
Humidity: 82%   Direction: NA
Pressure: 30.17"   Gusts: NA
Location:  41.225°N, 76.7388°W
Report Text: KIPT 231054Z AUTO 00000KT 7SM FEW050 SCT065 OVC085 01/M02 A3017 RMK AO2 RAB33E50 SLP220 P0000 T00061022
Loading
Personal Weather Stations






























Interactive Weather Map New forecast layout! Learn more

10-Day Weather Forecast

Advertisements
Track Severe Weather on mobile